Time;durP1;ratioP1;P1;durP2;ratioP2;P2;SDS_P1;SDS_P2;PMS_P1;PMS_P2;Temp;Humidity;BMP_temperature;BMP_pressure;BME280_temperature;BME280_humidity;BME280_pressure;Samples;Min_cycle;Max_cycle;Signal;HPM_P1;HPM_P2
2023/03/10 00:00:04;;;;;;;4.43;3.58;;;20.60;69.80;;;;;;5045249;28;20203;-57
2023/03/10 00:02:33;;;;;;;3.25;2.95;;;20.60;69.80;;;;;;5031943;28;20195;-54
2023/03/10 00:05:02;;;;;;;2.90;2.70;;;20.60;69.80;;;;;;5036802;28;20249;-55
2023/03/10 00:07:29;;;;;;;3.70;3.30;;;20.70;70.10;;;;;;5042302;28;20206;-70
2023/03/10 00:09:55;;;;;;;2.70;2.50;;;20.70;70.00;;;;;;5044122;28;20205;-57
2023/03/10 00:12:24;;;;;;;2.80;2.58;;;20.70;70.10;;;;;;5042155;28;20238;-66
2023/03/10 00:14:51;;;;;;;3.10;2.80;;;20.70;70.00;;;;;;5039886;28;20201;-58
2023/03/10 00:17:18;;;;;;;3.38;3.08;;;20.80;70.30;;;;;;5042153;28;20454;-67
2023/03/10 00:19:45;;;;;;;5.30;2.97;;;20.80;70.30;;;;;;5041719;28;20202;-60
2023/03/10 00:22:13;;;;;;;3.05;2.85;;;20.80;70.40;;;;;;5035911;28;20251;-59
2023/03/10 00:24:39;;;;;;;3.10;2.50;;;20.80;70.40;;;;;;5034284;28;20196;-56
2023/03/10 00:27:06;;;;;;;3.77;2.70;;;20.80;70.40;;;;;;5042018;28;20458;-59
2023/03/10 00:29:33;;;;;;;3.10;2.90;;;20.80;70.40;;;;;;5039847;28;20826;-55
2023/03/10 00:31:59;;;;;;;2.87;2.67;;;20.80;70.40;;;;;;5038842;28;20477;-58
2023/03/10 00:34:26;;;;;;;2.63;2.43;;;20.80;70.50;;;;;;5039172;28;20489;-67
2023/03/10 00:36:53;;;;;;;2.77;2.57;;;20.90;70.60;;;;;;5036004;28;20458;-63
2023/03/10 00:39:21;;;;;;;4.47;2.83;;;20.90;70.60;;;;;;5033523;28;21286;-51
2023/03/10 00:41:48;;;;;;;3.88;2.45;;;20.90;70.70;;;;;;5035434;28;20458;-54
2023/03/10 00:44:15;;;;;;;7.00;2.60;;;20.80;70.60;;;;;;5035483;28;20208;-52
2023/03/10 00:46:42;;;;;;;2.85;2.58;;;20.80;70.50;;;;;;5037313;28;20450;-56
2023/03/10 00:49:11;;;;;;;2.63;2.43;;;20.70;70.40;;;;;;5036609;28;20200;-58
2023/03/10 00:51:38;;;;;;;3.10;2.87;;;20.70;70.40;;;;;;5037321;28;20466;-55
2023/03/10 00:54:05;;;;;;;3.95;2.45;;;20.70;70.30;;;;;;5046567;28;20454;-51
2023/03/10 00:56:33;;;;;;;3.28;3.08;;;20.70;70.20;;;;;;5047857;28;20549;-54
2023/03/10 00:59:00;;;;;;;2.97;2.77;;;20.70;70.10;;;;;;5044474;28;20592;-52
2023/03/10 01:01:29;;;;;;;3.00;2.80;;;20.70;70.00;;;;;;5045722;28;20468;-54
2023/03/10 01:03:58;;;;;;;2.80;2.60;;;20.70;69.90;;;;;;5047639;28;20203;-52
2023/03/10 01:06:26;;;;;;;6.57;2.63;;;20.80;69.80;;;;;;5049064;28;20199;-53
2023/03/10 01:08:53;;;;;;;15.63;2.90;;;20.80;69.80;;;;;;5048673;28;20452;-50
2023/03/10 01:11:22;;;;;;;3.30;2.50;;;20.70;69.80;;;;;;5035757;28;20659;-49
2023/03/10 01:13:50;;;;;;;2.97;2.65;;;20.70;69.80;;;;;;5048750;28;20497;-51
2023/03/10 01:16:17;;;;;;;3.35;2.47;;;20.70;69.70;;;;;;5042483;28;20199;-57
2023/03/10 01:18:44;;;;;;;7.05;3.03;;;20.70;69.70;;;;;;5036473;28;20212;-50
2023/03/10 01:21:16;;;;;;;2.50;2.35;;;20.60;69.50;;;;;;5038514;28;20227;-49
2023/03/10 01:23:42;;;;;;;2.47;2.28;;;20.60;69.60;;;;;;5035962;28;20214;-52
2023/03/10 01:26:09;;;;;;;2.67;2.47;;;20.60;69.30;;;;;;5033638;28;20668;-56
2023/03/10 01:28:36;;;;;;;3.58;2.67;;;20.60;69.30;;;;;;5036035;28;20199;-56
2023/03/10 01:31:06;;;;;;;2.50;2.30;;;20.60;69.30;;;;;;5037670;28;20290;-58
2023/03/10 01:33:33;;;;;;;4.57;2.25;;;20.60;69.20;;;;;;5038652;28;20250;-55
2023/03/10 01:36:00;;;;;;;3.17;2.97;;;20.60;69.20;;;;;;5038236;28;20222;-64
2023/03/10 01:38:27;;;;;;;2.63;2.42;;;20.60;69.10;;;;;;5042393;28;20219;-53
2023/03/10 01:40:54;;;;;;;3.78;2.40;;;20.60;69.10;;;;;;5047067;28;20668;-53
2023/03/10 01:43:32;;;;;;;3.30;2.17;;;20.60;69.10;;;;;;5043939;28;20216;-56
2023/03/10 01:46:29;;;;;;;2.60;2.40;;;20.60;69.00;;;;;;5047220;28;20222;-53
2023/03/10 01:49:00;;;;;;;2.40;2.20;;;20.60;69.00;;;;;;5041076;28;20195;-51
2023/03/10 01:51:29;;;;;;;2.70;2.10;;;20.60;68.90;;;;;;5040339;28;20207;-58
2023/03/10 01:53:56;;;;;;;5.80;2.20;;;20.60;68.90;;;;;;5041139;28;20203;-53
2023/03/10 01:56:23;;;;;;;2.85;2.65;;;20.60;68.90;;;;;;5045377;28;20199;-66
2023/03/10 01:58:50;;;;;;;2.67;2.40;;;20.60;68.90;;;;;;5041893;28;20215;-50
2023/03/10 02:01:17;;;;;;;2.00;1.90;;;20.50;68.70;;;;;;5042667;28;20195;-62
2023/03/10 02:03:51;;;;;;;2.42;2.22;;;20.50;68.70;;;;;;5044704;28;20199;-52
2023/03/10 02:06:21;;;;;;;3.40;2.60;;;20.50;68.60;;;;;;5041884;28;20191;-58
2023/03/10 02:08:52;;;;;;;2.33;2.13;;;20.50;68.60;;;;;;5040719;28;20679;-50
2023/03/10 02:11:20;;;;;;;2.75;2.55;;;20.50;68.60;;;;;;5040638;28;20264;-49
2023/03/10 02:13:47;;;;;;;3.80;2.70;;;20.50;68.60;;;;;;5040189;28;20195;-58
2023/03/10 02:16:14;;;;;;;2.63;2.42;;;20.50;68.50;;;;;;5039900;28;20200;-53
2023/03/10 02:18:44;;;;;;;2.20;2.00;;;20.50;68.50;;;;;;5040786;28;20675;-50
2023/03/10 02:21:19;;;;;;;2.92;2.40;;;20.50;68.50;;;;;;5040033;28;20196;-54
2023/03/10 02:23:54;;;;;;;2.03;1.93;;;20.50;68.40;;;;;;5039900;28;20198;-50
2023/03/10 02:26:30;;;;;;;2.55;2.35;;;20.50;68.40;;;;;;5040106;28;20457;-51
2023/03/10 02:29:01;;;;;;;2.22;1.92;;;20.50;68.30;;;;;;5040749;28;20203;-51
2023/03/10 02:31:29;;;;;;;2.33;2.13;;;20.50;68.40;;;;;;5035070;28;20206;-66
2023/03/10 02:33:57;;;;;;;2.25;2.13;;;20.50;68.40;;;;;;5041794;28;20203;-61
2023/03/10 02:36:24;;;;;;;2.40;2.20;;;20.40;68.20;;;;;;5039288;28;20222;-65
2023/03/10 02:38:51;;;;;;;2.13;1.90;;;20.40;68.20;;;;;;5040440;28;20215;-52
2023/03/10 02:41:22;;;;;;;2.15;1.95;;;20.40;68.20;;;;;;5039213;28;20202;-51
2023/03/10 02:43:49;;;;;;;2.17;2.08;;;20.40;68.20;;;;;;5046692;28;20214;-54
2023/03/10 02:46:18;;;;;;;2.10;2.00;;;20.40;68.10;;;;;;5037872;28;20204;-54
2023/03/10 02:48:45;;;;;;;2.05;1.65;;;20.40;68.10;;;;;;5043535;28;20227;-57
2023/03/10 02:51:17;;;;;;;2.22;2.13;;;20.40;68.10;;;;;;5038076;28;20210;-55
2023/03/10 02:53:43;;;;;;;2.75;2.20;;;20.40;68.10;;;;;;5038931;28;20204;-56
2023/03/10 02:56:10;;;;;;;2.95;2.22;;;20.40;68.00;;;;;;5047790;28;20590;-56
2023/03/10 02:58:37;;;;;;;2.20;2.00;;;20.40;68.00;;;;;;5042007;28;20222;-57
2023/03/10 03:01:05;;;;;;;2.90;2.70;;;20.40;68.00;;;;;;5039511;28;20199;-57
2023/03/10 03:03:33;;;;;;;2.53;2.33;;;20.40;68.00;;;;;;5044383;28;20195;-52
2023/03/10 03:06:00;;;;;;;2.58;2.38;;;20.40;68.00;;;;;;5048018;28;20941;-51
2023/03/10 03:08:28;;;;;;;2.35;2.20;;;20.40;68.00;;;;;;5048458;28;20207;-49
2023/03/10 03:10:55;;;;;;;1.80;1.70;;;20.40;68.00;;;;;;5051355;28;20196;-52
2023/03/10 03:13:21;;;;;;;2.17;1.98;;;20.40;68.00;;;;;;5049084;28;20651;-49
2023/03/10 03:15:48;;;;;;;2.40;2.20;;;20.30;67.90;;;;;;5047384;28;20192;-51
2023/03/10 03:18:15;;;;;;;1.95;1.85;;;20.30;67.90;;;;;;5039553;28;20203;-51
2023/03/10 03:20:43;;;;;;;2.30;2.20;;;20.30;67.80;;;;;;5036625;28;20198;-70
2023/03/10 03:23:11;;;;;;;2.33;2.03;;;20.30;67.80;;;;;;5038634;28;20215;-52
2023/03/10 03:25:40;;;;;;;2.00;1.90;;;20.30;67.80;;;;;;5039733;28;20626;-56
2023/03/10 03:28:08;;;;;;;2.28;2.08;;;20.30;67.70;;;;;;5039209;28;20673;-53
2023/03/10 03:30:35;;;;;;;1.90;1.80;;;20.30;67.70;;;;;;5036574;28;20191;-53
2023/03/10 03:33:04;;;;;;;2.38;2.17;;;20.30;67.70;;;;;;5036486;28;20206;-52
2023/03/10 03:35:32;;;;;;;1.90;1.80;;;20.30;67.70;;;;;;5038982;28;20191;-53
2023/03/10 03:38:01;;;;;;;2.55;2.35;;;20.30;67.80;;;;;;5040902;28;20298;-55
2023/03/10 03:40:32;;;;;;;2.25;2.05;;;20.30;67.70;;;;;;5040450;28;20440;-52
2023/03/10 03:42:59;;;;;;;2.22;2.03;;;20.30;67.60;;;;;;5039465;28;20211;-54
2023/03/10 03:45:28;;;;;;;1.98;1.80;;;20.30;67.60;;;;;;5038618;28;20223;-49
2023/03/10 03:47:55;;;;;;;2.42;2.10;;;20.30;67.60;;;;;;5037306;28;20196;-64
2023/03/10 03:50:22;;;;;;;2.67;2.47;;;20.20;67.50;;;;;;5036098;28;20203;-64
2023/03/10 03:52:49;;;;;;;2.60;2.40;;;20.20;67.50;;;;;;5036545;28;20630;-50
2023/03/10 03:55:18;;;;;;;2.30;2.10;;;20.20;67.50;;;;;;5039760;28;20202;-51
2023/03/10 03:57:45;;;;;;;2.00;1.90;;;20.20;67.50;;;;;;5039224;28;20196;-51
2023/03/10 04:00:15;;;;;;;1.98;1.70;;;20.30;67.50;;;;;;5034785;28;20226;-60
2023/03/10 04:02:42;;;;;;;2.15;2.05;;;20.20;67.40;;;;;;5037657;28;20195;-59
2023/03/10 04:05:09;;;;;;;2.95;2.03;;;20.20;68.20;;;;;;5042418;28;20191;-51
2023/03/10 04:07:38;;;;;;;2.13;2.03;;;20.20;67.50;;;;;;5042519;28;20196;-53
2023/03/10 04:10:07;;;;;;;1.65;1.55;;;20.20;67.40;;;;;;5035729;28;20203;-57
2023/03/10 04:12:35;;;;;;;1.98;1.88;;;20.20;67.40;;;;;;5038282;28;20204;-64
2023/03/10 04:15:02;;;;;;;1.90;1.80;;;20.20;67.40;;;;;;5038448;28;20722;-57
2023/03/10 04:17:28;;;;;;;1.95;1.77;;;20.20;67.40;;;;;;5036816;28;20290;-58
2023/03/10 04:19:55;;;;;;;1.77;1.63;;;20.20;67.40;;;;;;5037430;28;20222;-62
2023/03/10 04:22:22;;;;;;;1.63;1.52;;;20.20;67.40;;;;;;5036150;28;20227;-52
2023/03/10 04:24:48;;;;;;;1.95;1.75;;;20.10;67.20;;;;;;5038343;28;20219;-56
2023/03/10 04:27:15;;;;;;;1.70;1.58;;;20.10;67.20;;;;;;5039356;28;20206;-59
2023/03/10 04:29:43;;;;;;;1.60;1.50;;;20.10;67.20;;;;;;5036737;28;20203;-64
2023/03/10 04:32:10;;;;;;;1.83;1.73;;;20.10;67.20;;;;;;5036580;28;20852;-58
2023/03/10 04:34:37;;;;;;;2.40;2.00;;;20.10;67.20;;;;;;5034824;28;20199;-59
2023/03/10 04:37:03;;;;;;;1.73;1.63;;;20.10;67.20;;;;;;5037301;28;20595;-56
2023/03/10 04:39:30;;;;;;;2.45;1.65;;;20.10;67.90;;;;;;5036059;28;20226;-53
2023/03/10 04:41:57;;;;;;;2.20;2.10;;;20.10;67.20;;;;;;5041606;28;20195;-54
2023/03/10 04:44:23;;;;;;;2.00;1.90;;;20.10;67.20;;;;;;5039235;28;20195;-53
2023/03/10 04:46:52;;;;;;;1.52;1.40;;;20.10;67.20;;;;;;5045657;28;20208;-48
2023/03/10 04:49:18;;;;;;;2.10;2.00;;;20.10;67.20;;;;;;5035193;28;20218;-67
2023/03/10 04:51:45;;;;;;;1.52;1.42;;;20.10;67.20;;;;;;5042237;28;20198;-51
2023/03/10 04:54:12;;;;;;;1.88;1.75;;;20.10;67.20;;;;;;5042012;28;20195;-50
2023/03/10 04:56:39;;;;;;;1.55;1.45;;;20.10;67.20;;;;;;5049236;28;20194;-57
2023/03/10 04:59:05;;;;;;;1.80;1.70;;;20.10;67.10;;;;;;5045755;28;20211;-52
2023/03/10 05:01:33;;;;;;;1.70;1.60;;;20.10;67.10;;;;;;5038134;28;20196;-57
2023/03/10 05:04:01;;;;;;;2.28;1.85;;;20.10;67.10;;;;;;5043106;28;20294;-54
2023/03/10 05:06:28;;;;;;;2.00;1.75;;;20.00;67.00;;;;;;5037059;28;20205;-53
2023/03/10 05:08:55;;;;;;;1.77;1.67;;;20.10;67.10;;;;;;5039748;28;20199;-54
2023/03/10 05:11:22;;;;;;;2.05;1.95;;;20.00;67.00;;;;;;5051370;28;20529;-52
2023/03/10 05:13:49;;;;;;;1.90;1.80;;;20.00;67.00;;;;;;5052160;28;20192;-55
2023/03/10 05:16:19;;;;;;;1.60;1.50;;;20.00;67.00;;;;;;5042622;28;20187;-51
2023/03/10 05:18:46;;;;;;;1.63;1.52;;;20.00;67.00;;;;;;5045074;28;20192;-52
2023/03/10 05:21:15;;;;;;;2.03;1.83;;;20.00;67.00;;;;;;5046721;28;20319;-54
2023/03/10 05:23:42;;;;;;;1.77;1.67;;;20.00;67.00;;;;;;5043405;28;20210;-66
2023/03/10 05:26:10;;;;;;;1.90;1.80;;;20.00;67.00;;;;;;5039996;28;20195;-59
2023/03/10 05:28:37;;;;;;;1.80;1.70;;;20.00;67.00;;;;;;5046344;28;20198;-57
2023/03/10 05:31:10;;;;;;;1.77;1.67;;;20.00;66.90;;;;;;5044225;28;20567;-57
2023/03/10 05:33:36;;;;;;;2.10;1.90;;;20.00;66.90;;;;;;5041923;28;20286;-51
2023/03/10 05:36:05;;;;;;;1.65;1.55;;;20.00;66.90;;;;;;5042222;28;20404;-53
2023/03/10 05:38:34;;;;;;;1.40;1.30;;;20.00;67.70;;;;;;5041201;28;20667;-57
2023/03/10 05:41:00;;;;;;;1.70;1.60;;;20.00;66.90;;;;;;5041271;28;20226;-64
2023/03/10 05:43:27;;;;;;;1.83;1.73;;;20.00;66.80;;;;;;5039036;28;20692;-62
2023/03/10 05:45:58;;;;;;;1.80;1.70;;;20.00;67.80;;;;;;5038069;28;20199;-59
2023/03/10 05:48:25;;;;;;;1.40;1.30;;;20.00;66.80;;;;;;5040443;28;20191;-58
2023/03/10 05:51:00;;;;;;;1.83;1.50;;;19.90;66.80;;;;;;5039418;28;20206;-52
2023/03/10 05:53:27;;;;;;;2.17;1.83;;;19.90;66.90;;;;;;5041339;28;20206;-57
2023/03/10 05:55:56;;;;;;;1.40;1.30;;;19.90;66.80;;;;;;5042666;28;20200;-60
2023/03/10 05:58:23;;;;;;;1.65;1.55;;;19.90;66.80;;;;;;5041277;28;20200;-56
2023/03/10 06:00:49;;;;;;;1.63;1.52;;;19.90;66.70;;;;;;5039817;28;20699;-52
2023/03/10 06:03:16;;;;;;;1.38;1.17;;;19.90;66.80;;;;;;5043657;28;20567;-47
2023/03/10 06:05:43;;;;;;;1.55;1.45;;;19.90;66.70;;;;;;5040742;28;20664;-53
2023/03/10 06:08:10;;;;;;;1.55;1.45;;;19.90;66.70;;;;;;5045888;28;20195;-54
2023/03/10 06:10:37;;;;;;;1.27;1.17;;;19.90;66.70;;;;;;5048480;28;20255;-50
2023/03/10 06:13:05;;;;;;;1.55;1.45;;;19.90;66.70;;;;;;5038643;28;20192;-49
2023/03/10 06:15:31;;;;;;;1.23;1.13;;;19.90;66.70;;;;;;5040969;28;20849;-50
2023/03/10 06:17:58;;;;;;;1.83;1.73;;;19.90;66.70;;;;;;5048170;28;20200;-50
2023/03/10 06:20:25;;;;;;;1.48;1.38;;;19.90;66.60;;;;;;5046324;28;20219;-49
2023/03/10 06:22:52;;;;;;;1.60;1.50;;;19.90;66.60;;;;;;5039153;28;20250;-54
2023/03/10 06:25:19;;;;;;;1.55;1.45;;;19.90;66.60;;;;;;5039997;28;20288;-50
2023/03/10 06:27:45;;;;;;;1.70;1.60;;;19.90;66.60;;;;;;5037460;28;20200;-58
2023/03/10 06:30:14;;;;;;;1.40;1.30;;;19.90;66.60;;;;;;5042393;28;20689;-55
2023/03/10 06:32:41;;;;;;;1.40;1.30;;;19.90;66.60;;;;;;5038635;28;20206;-56
2023/03/10 06:35:10;;;;;;;1.40;1.30;;;19.90;66.50;;;;;;5048018;28;20199;-59
2023/03/10 06:37:39;;;;;;;1.60;1.45;;;19.90;66.60;;;;;;5038962;28;20202;-49
2023/03/10 06:40:11;;;;;;;1.90;1.48;;;19.90;66.60;;;;;;5048573;28;20226;-54
2023/03/10 06:42:38;;;;;;;1.50;1.40;;;19.90;66.60;;;;;;5041394;28;20306;-57
2023/03/10 06:45:06;;;;;;;1.80;1.70;;;19.90;66.70;;;;;;5042592;28;20284;-57
2023/03/10 06:47:35;;;;;;;1.80;1.35;;;19.90;66.70;;;;;;5041596;28;20622;-52
2023/03/10 06:50:04;;;;;;;1.50;1.40;;;19.90;66.70;;;;;;5041692;28;20215;-48
2023/03/10 06:52:33;;;;;;;1.70;1.60;;;19.90;66.70;;;;;;5037716;28;20196;-49
2023/03/10 06:54:59;;;;;;;1.42;1.33;;;19.90;66.70;;;;;;5043584;28;20209;-47
2023/03/10 06:57:26;;;;;;;1.80;1.58;;;19.90;66.60;;;;;;5044195;28;20191;-53
2023/03/10 06:59:53;;;;;;;1.85;1.75;;;19.90;66.60;;;;;;5042622;28;20226;-63
2023/03/10 07:02:20;;;;;;;1.65;1.55;;;19.90;66.50;;;;;;5041453;28;20195;-49
2023/03/10 07:04:48;;;;;;;1.40;1.30;;;19.90;66.50;;;;;;5047138;28;20203;-67
2023/03/10 07:07:15;;;;;;;1.83;1.60;;;19.90;66.50;;;;;;5045748;28;20208;-53
2023/03/10 07:09:41;;;;;;;1.35;1.25;;;19.90;66.50;;;;;;5045648;28;20207;-50
2023/03/10 07:12:08;;;;;;;1.52;1.38;;;19.90;66.40;;;;;;5040925;28;20632;-56
2023/03/10 07:14:35;;;;;;;1.40;1.30;;;19.90;66.50;;;;;;5042401;28;20207;-51
2023/03/10 07:17:02;;;;;;;1.33;1.20;;;19.90;66.50;;;;;;5038867;28;20199;-52
2023/03/10 07:19:29;;;;;;;1.50;1.40;;;19.90;66.40;;;;;;5038163;28;20203;-54
2023/03/10 07:21:57;;;;;;;1.50;1.40;;;19.90;66.40;;;;;;5044738;28;20562;-52
2023/03/10 07:24:24;;;;;;;1.15;1.05;;;20.00;66.50;;;;;;5043499;28;20659;-52
2023/03/10 07:26:50;;;;;;;3.38;1.55;;;20.00;66.40;;;;;;5041026;28;20195;-58
2023/03/10 07:29:17;;;;;;;1.58;1.48;;;20.00;66.90;;;;;;5042469;28;20199;-52
2023/03/10 07:31:44;;;;;;;1.50;1.40;;;19.90;67.80;;;;;;5041869;28;20571;-52
2023/03/10 07:34:11;;;;;;;1.58;1.30;;;19.90;68.30;;;;;;5038491;28;20559;-51
2023/03/10 07:36:38;;;;;;;1.63;1.38;;;19.90;68.70;;;;;;5039210;28;20191;-55
2023/03/10 07:39:06;;;;;;;1.42;1.33;;;20.00;69.00;;;;;;5044509;28;20204;-56
2023/03/10 07:41:32;;;;;;;3.17;1.35;;;20.00;68.50;;;;;;5035830;28;20219;-59
2023/03/10 07:43:59;;;;;;;7.65;1.67;;;20.00;68.50;;;;;;5038506;28;20683;-54
2023/03/10 07:46:26;;;;;;;1.80;1.42;;;20.10;68.50;;;;;;5039584;28;20199;-48
2023/03/10 07:48:53;;;;;;;3.83;1.52;;;20.10;68.30;;;;;;5040734;28;20191;-58
2023/03/10 07:51:20;;;;;;;4.53;1.42;;;20.10;68.20;;;;;;5038966;28;20245;-52
2023/03/10 07:53:47;;;;;;;1.60;1.27;;;20.00;68.10;;;;;;5040612;28;20195;-58
2023/03/10 07:56:15;;;;;;;5.20;1.38;;;20.00;68.10;;;;;;5037944;28;20191;-53
2023/03/10 07:58:41;;;;;;;1.45;1.20;;;20.10;68.10;;;;;;5039362;28;20204;-53
2023/03/10 08:01:14;;;;;;;1.38;1.27;;;20.10;68.00;;;;;;5037040;28;20579;-53
2023/03/10 08:03:40;;;;;;;1.80;1.70;;;20.10;67.90;;;;;;5042962;28;21533;-52
2023/03/10 08:06:07;;;;;;;1.40;1.20;;;20.10;67.90;;;;;;5038515;28;20202;-64
2023/03/10 08:08:34;;;;;;;1.85;1.40;;;20.10;67.80;;;;;;5040807;28;20203;-48
2023/03/10 08:11:03;;;;;;;1.42;1.30;;;20.10;67.90;;;;;;5039309;28;20199;-60
2023/03/10 08:13:32;;;;;;;2.17;1.10;;;20.10;67.80;;;;;;5038731;28;20227;-59
2023/03/10 08:16:00;;;;;;;1.63;1.52;;;20.10;67.80;;;;;;5037711;28;20229;-59
2023/03/10 08:18:28;;;;;;;1.30;1.20;;;20.10;67.70;;;;;;5038705;28;20200;-49
2023/03/10 08:20:55;;;;;;;2.55;1.77;;;20.10;67.70;;;;;;5036699;28;20231;-62
2023/03/10 08:23:22;;;;;;;1.25;1.15;;;20.10;67.60;;;;;;5038207;28;20215;-54
2023/03/10 08:25:49;;;;;;;1.80;1.30;;;20.10;67.60;;;;;;5039830;28;20298;-52
2023/03/10 08:28:16;;;;;;;1.30;1.20;;;20.10;67.60;;;;;;5041052;28;20521;-55
2023/03/10 08:30:44;;;;;;;4.78;1.20;;;20.10;67.60;;;;;;5035436;28;20195;-62
2023/03/10 08:33:11;;;;;;;1.50;1.25;;;20.10;67.60;;;;;;5038882;28;20199;-59
2023/03/10 08:35:38;;;;;;;1.30;1.20;;;20.10;67.50;;;;;;5035288;28;20203;-65
2023/03/10 08:38:05;;;;;;;1.15;1.05;;;20.10;68.30;;;;;;5040153;28;20326;-54
2023/03/10 08:40:32;;;;;;;1.33;1.23;;;20.10;67.60;;;;;;5038419;28;20710;-53
2023/03/10 08:42:59;;;;;;;1.27;1.17;;;20.10;67.50;;;;;;5036036;28;20470;-51
2023/03/10 08:45:26;;;;;;;1.65;1.55;;;20.10;67.60;;;;;;5044301;28;20199;-52
2023/03/10 08:47:54;;;;;;;1.40;1.30;;;20.10;67.60;;;;;;5048667;28;20659;-56
2023/03/10 08:50:21;;;;;;;1.10;1.00;;;20.10;67.60;;;;;;5033932;28;20667;-62
2023/03/10 08:52:48;;;;;;;1.40;1.20;;;20.10;67.60;;;;;;5047600;28;20245;-49
2023/03/10 08:55:15;;;;;;;1.55;1.45;;;20.10;67.60;;;;;;5049266;28;20191;-49
2023/03/10 08:57:42;;;;;;;1.20;1.05;;;20.10;67.60;;;;;;5045587;28;20650;-51
2023/03/10 09:00:11;;;;;;;1.40;1.30;;;20.10;67.60;;;;;;5043762;28;20195;-55
2023/03/10 09:02:38;;;;;;;1.80;1.10;;;20.10;67.70;;;;;;5048772;28;20622;-51
2023/03/10 09:05:07;;;;;;;1.77;1.67;;;20.10;67.70;;;;;;5047384;28;20683;-52
2023/03/10 09:07:33;;;;;;;1.52;1.42;;;20.10;67.80;;;;;;5042828;28;20195;-59
2023/03/10 09:10:00;;;;;;;1.20;1.10;;;20.10;67.90;;;;;;5047325;28;20206;-49
2023/03/10 09:12:27;;;;;;;1.50;1.40;;;20.10;67.90;;;;;;5046387;28;20192;-48
2023/03/10 09:14:54;;;;;;;1.30;1.20;;;20.10;67.90;;;;;;5048607;28;20587;-55
2023/03/10 09:17:20;;;;;;;1.52;1.30;;;20.00;67.80;;;;;;5040497;28;20188;-51
2023/03/10 09:19:47;;;;;;;1.45;1.35;;;20.10;68.70;;;;;;5043226;28;20219;-48
2023/03/10 09:22:15;;;;;;;1.30;1.20;;;20.00;67.80;;;;;;5045578;28;20227;-57
2023/03/10 09:24:42;;;;;;;2.28;1.20;;;20.00;67.80;;;;;;5044035;28;20207;-62
2023/03/10 09:27:09;;;;;;;1.23;1.00;;;20.00;67.80;;;;;;5046703;28;20192;-49
2023/03/10 09:29:35;;;;;;;1.50;1.40;;;20.00;67.80;;;;;;5039049;28;20196;-57
2023/03/10 09:32:03;;;;;;;1.40;1.30;;;20.00;67.80;;;;;;5036795;28;20212;-50
2023/03/10 09:34:30;;;;;;;1.30;1.20;;;20.00;67.80;;;;;;5044784;28;20203;-56
2023/03/10 09:36:56;;;;;;;1.10;1.00;;;20.00;67.80;;;;;;5042748;28;20200;-52
2023/03/10 09:39:24;;;;;;;1.27;1.10;;;20.00;67.80;;;;;;5042903;28;20838;-53
2023/03/10 09:42:24;;;;;;;1.80;1.30;;;20.00;67.70;;;;;;5040786;28;20215;-47
2023/03/10 09:45:01;;;;;;;1.40;1.30;;;20.00;67.80;;;;;;5039816;28;20252;-53
2023/03/10 09:47:40;;;;;;;1.50;1.40;;;20.00;67.70;;;;;;5040378;28;20287;-52
2023/03/10 09:50:20;;;;;;;1.40;1.30;;;20.10;67.80;;;;;;5045771;28;20210;-60
2023/03/10 09:52:52;;;;;;;1.80;1.00;;;20.10;67.90;;;;;;5037502;28;20207;-54
2023/03/10 09:55:23;;;;;;;1.38;1.17;;;20.10;67.90;;;;;;5045544;28;20579;-51
2023/03/10 09:57:52;;;;;;;1.10;0.90;;;20.10;67.80;;;;;;5039303;28;20195;-63
2023/03/10 10:00:24;;;;;;;2.15;1.58;;;20.10;67.90;;;;;;5037405;28;20207;-53
2023/03/10 10:03:02;;;;;;;1.55;1.45;;;20.10;67.90;;;;;;5042882;28;20195;-63
2023/03/10 10:05:33;;;;;;;1.80;1.30;;;20.10;67.90;;;;;;5033623;28;20671;-63
2023/03/10 10:08:03;;;;;;;1.33;1.23;;;20.10;67.90;;;;;;5040404;28;20843;-54
2023/03/10 10:10:35;;;;;;;1.63;1.40;;;20.10;67.90;;;;;;5038842;28;20199;-55
2023/03/10 10:13:10;;;;;;;1.65;1.25;;;20.20;67.90;;;;;;5038762;28;20604;-49
2023/03/10 10:15:39;;;;;;;1.48;1.38;;;20.20;67.90;;;;;;5038199;28;20199;-54
2023/03/10 10:18:12;;;;;;;1.25;1.15;;;20.20;67.90;;;;;;5043121;28;20221;-49
2023/03/10 10:20:42;;;;;;;1.50;1.40;;;20.20;67.90;;;;;;5039480;28;20215;-49
2023/03/10 10:23:18;;;;;;;1.30;1.20;;;20.20;67.90;;;;;;5040490;28;20231;-54
2023/03/10 10:25:46;;;;;;;1.77;1.25;;;20.20;67.90;;;;;;5041143;28;20206;-48
2023/03/10 10:28:21;;;;;;;10.35;2.10;;;20.20;67.90;;;;;;5036326;28;20227;-60
2023/03/10 10:30:48;;;;;;;4.82;1.40;;;20.20;68.60;;;;;;5039300;28;20230;-48
2023/03/10 10:33:15;;;;;;;8.25;1.30;;;20.10;69.10;;;;;;5042248;28;20194;-56
2023/03/10 10:35:44;;;;;;;6.78;1.95;;;20.10;69.00;;;;;;5034676;28;20215;-64
2023/03/10 10:38:25;;;;;;;2.80;1.33;;;20.10;68.80;;;;;;5040001;28;20274;-64
2023/03/10 10:41:01;;;;;;;6.55;1.63;;;20.20;68.90;;;;;;5038673;28;20306;-61
2023/03/10 10:43:29;;;;;;;3.83;1.33;;;20.20;68.90;;;;;;5038447;28;20204;-68
2023/03/10 10:45:58;;;;;;;4.63;1.60;;;20.30;68.90;;;;;;5037494;28;20199;-64
2023/03/10 10:48:37;;;;;;;3.30;1.48;;;20.30;69.00;;;;;;5044380;28;20194;-59
2023/03/10 10:51:04;;;;;;;1.58;1.30;;;20.40;69.10;;;;;;5049155;28;20206;-64
2023/03/10 10:53:33;;;;;;;3.58;1.58;;;20.40;69.20;;;;;;5045272;28;20200;-61
2023/03/10 10:56:04;;;;;;;1.50;1.10;;;20.40;69.10;;;;;;5044068;28;20208;-55
2023/03/10 10:58:33;;;;;;;2.08;1.40;;;20.50;69.20;;;;;;5049473;28;20484;-54
2023/03/10 11:01:02;;;;;;;8.30;1.20;;;20.50;69.20;;;;;;5048203;28;20215;-55
2023/03/10 11:03:32;;;;;;;2.85;1.10;;;20.50;69.20;;;;;;5040813;28;20199;-67
2023/03/10 11:05:59;;;;;;;2.90;1.67;;;20.50;69.20;;;;;;5041175;28;20202;-61
2023/03/10 11:08:36;;;;;;;4.35;1.23;;;20.60;69.30;;;;;;5036345;28;20204;-59
2023/03/10 11:11:15;;;;;;;1.50;0.95;;;20.60;69.30;;;;;;5043627;28;20245;-68
2023/03/10 11:13:58;;;;;;;1.70;1.02;;;20.60;69.30;;;;;;5042109;28;20199;-60
2023/03/10 11:16:31;;;;;;;1.75;1.10;;;20.60;69.30;;;;;;5040088;28;20195;-63
2023/03/10 11:19:04;;;;;;;1.53;0.90;;;20.60;69.40;;;;;;5042292;28;20194;-59
2023/03/10 11:21:34;;;;;;;2.47;1.40;;;20.60;69.30;;;;;;5036823;28;20491;-61
2023/03/10 11:24:12;;;;;;;3.23;1.10;;;20.70;69.50;;;;;;5045538;28;20203;-62
2023/03/10 11:26:50;;;;;;;2.42;1.40;;;20.70;69.50;;;;;;5037310;28;20672;-58
2023/03/10 11:29:31;;;;;;;1.90;0.95;;;20.70;69.50;;;;;;5045655;28;20192;-60
2023/03/10 11:32:05;;;;;;;1.20;1.10;;;20.70;69.50;;;;;;5045916;28;20621;-55
2023/03/10 11:34:39;;;;;;;1.23;1.08;;;20.70;69.60;;;;;;5042892;28;20490;-56
2023/03/10 11:37:13;;;;;;;3.70;1.13;;;20.80;69.70;;;;;;5043931;28;20192;-57
2023/03/10 11:39:51;;;;;;;1.70;1.10;;;20.80;69.60;;;;;;5037322;28;20512;-72
2023/03/10 11:42:27;;;;;;;1.67;1.17;;;20.80;69.70;;;;;;5039181;28;20485;-58
2023/03/10 11:45:03;;;;;;;1.67;1.20;;;20.80;69.70;;;;;;5038010;28;20468;-62
2023/03/10 11:47:43;;;;;;;1.10;0.93;;;20.80;69.80;;;;;;5036106;28;21068;-71
2023/03/10 11:50:19;;;;;;;1.60;1.13;;;20.80;69.70;;;;;;5040750;28;20859;-58
2023/03/10 11:52:48;;;;;;;1.40;0.97;;;20.80;69.70;;;;;;5038360;28;20834;-66
2023/03/10 11:55:19;;;;;;;1.20;1.00;;;20.90;69.80;;;;;;5039471;28;20455;-58
2023/03/10 11:57:50;;;;;;;1.30;1.20;;;20.90;69.80;;;;;;5036881;28;21039;-64
2023/03/10 12:00:24;;;;;;;1.27;1.17;;;20.90;69.80;;;;;;5036264;28;20466;-58
2023/03/10 12:03:11;;;;;;;1.10;0.87;;;20.90;69.80;;;;;;5037018;28;20481;-53
2023/03/10 12:05:45;;;;;;;1.60;1.37;;;20.90;69.80;;;;;;5039123;28;20546;-56
2023/03/10 12:08:15;;;;;;;1.20;0.90;;;20.90;69.80;;;;;;5036735;28;20466;-60
2023/03/10 12:10:42;;;;;;;1.30;0.90;;;20.90;69.80;;;;;;5035955;28;20462;-59
2023/03/10 12:13:22;;;;;;;3.00;1.00;;;21.00;69.90;;;;;;5035370;28;20537;-56
2023/03/10 12:15:50;;;;;;;1.27;1.07;;;20.90;69.80;;;;;;5037696;28;20545;-51
2023/03/10 12:18:16;;;;;;;1.67;1.27;;;20.90;69.90;;;;;;5035526;28;20500;-60
2023/03/10 12:20:43;;;;;;;2.83;1.53;;;20.90;69.90;;;;;;5036298;28;20454;-59
2023/03/10 12:23:30;;;;;;;1.30;0.97;;;20.80;69.90;;;;;;5037401;28;20494;-51
2023/03/10 12:25:56;;;;;;;1.90;1.27;;;20.80;69.80;;;;;;5035495;28;20458;-54
2023/03/10 12:28:26;;;;;;;2.73;0.90;;;20.80;69.80;;;;;;5034110;28;21004;-57
2023/03/10 12:30:56;;;;;;;1.60;1.10;;;20.80;69.80;;;;;;5032997;28;20458;-50
2023/03/10 12:33:45;;;;;;;3.70;1.40;;;20.80;69.80;;;;;;5037020;28;20822;-57
2023/03/10 12:36:16;;;;;;;2.30;0.90;;;20.80;69.80;;;;;;5034111;28;20531;-54
2023/03/10 12:38:46;;;;;;;2.67;1.03;;;20.80;69.70;;;;;;5041158;28;20469;-65
2023/03/10 12:41:14;;;;;;;1.20;1.10;;;20.80;69.70;;;;;;5038655;28;20454;-58
2023/03/10 12:43:56;;;;;;;1.67;1.20;;;20.80;69.70;;;;;;5037078;28;20470;-48
2023/03/10 12:46:29;;;;;;;1.50;1.40;;;20.90;69.60;;;;;;5042191;28;20462;-46
2023/03/10 12:49:06;;;;;;;1.30;1.10;;;20.90;69.60;;;;;;5043715;28;20800;-54
2023/03/10 12:51:39;;;;;;;1.73;1.27;;;20.90;70.40;;;;;;5041999;28;20489;-46
2023/03/10 12:54:27;;;;;;;1.13;0.97;;;20.90;69.50;;;;;;5047359;28;20973;-50
2023/03/10 12:57:02;;;;;;;1.40;1.10;;;20.90;69.50;;;;;;5044918;28;20458;-51